createdAt,value
2019-05-29T00:00:25.208Z,99.60
2019-05-29T00:01:25.173Z,99.69
2019-05-29T00:02:25.148Z,99.99
2019-05-29T00:03:25.122Z,99.99
2019-05-29T00:04:25.092Z,99.99
2019-05-29T00:05:25.077Z,99.99
2019-05-29T00:06:25.039Z,99.84
2019-05-29T00:07:25.008Z,99.93
2019-05-29T00:08:24.984Z,99.74
2019-05-29T00:09:24.954Z,99.99
2019-05-29T00:10:24.929Z,99.99
2019-05-29T00:11:24.898Z,99.99
2019-05-29T00:12:24.871Z,99.99
2019-05-29T00:13:24.845Z,99.99
2019-05-29T00:14:27.425Z,99.99
2019-05-29T00:15:24.793Z,99.99
2019-05-29T00:16:24.760Z,99.99
2019-05-29T00:17:24.754Z,99.99
2019-05-29T00:18:24.706Z,99.99
2019-05-29T00:19:24.678Z,99.99
2019-05-29T00:20:24.651Z,99.99
2019-05-29T00:21:24.623Z,99.99
2019-05-29T00:22:24.595Z,99.99
2019-05-29T00:23:24.567Z,99.99
2019-05-29T00:24:25.274Z,99.99
2019-05-29T00:25:24.512Z,99.99
2019-05-29T00:26:24.484Z,99.99
2019-05-29T00:27:24.456Z,99.99
2019-05-29T00:28:24.429Z,99.99
2019-05-29T00:29:24.401Z,99.99
2019-05-29T00:30:24.375Z,99.99
2019-05-29T00:31:24.348Z,99.99
2019-05-29T00:32:24.318Z,99.99
2019-05-29T00:33:24.291Z,99.99
2019-05-29T00:34:24.268Z,99.99
2019-05-29T00:35:24.233Z,99.99
2019-05-29T00:36:24.207Z,99.99
2019-05-29T00:37:24.180Z,99.99
2019-05-29T00:38:24.153Z,99.99
2019-05-29T00:39:24.122Z,99.99
2019-05-29T00:40:24.097Z,99.99
2019-05-29T00:41:24.065Z,99.99
2019-05-29T00:42:24.041Z,99.99
2019-05-29T00:43:24.010Z,99.99
2019-05-29T00:44:33.846Z,99.99
2019-05-29T00:45:23.955Z,99.99
2019-05-29T00:46:23.928Z,99.99
2019-05-29T00:47:23.908Z,99.99
2019-05-29T00:48:23.870Z,99.99
2019-05-29T00:49:23.842Z,99.99
2019-05-29T00:50:23.815Z,99.99
2019-05-29T00:51:23.785Z,99.99
2019-05-29T00:52:23.758Z,99.99
2019-05-29T00:53:23.729Z,99.99
2019-05-29T00:54:23.707Z,99.99
2019-05-29T00:55:23.674Z,99.99
2019-05-29T00:56:23.645Z,99.99
2019-05-29T00:57:23.618Z,99.99
2019-05-29T00:58:23.588Z,99.99
2019-05-29T00:59:23.565Z,99.99
2019-05-29T01:00:23.534Z,99.99
2019-05-29T01:01:23.505Z,99.99
2019-05-29T01:02:23.476Z,99.99
2019-05-29T01:03:23.449Z,99.99
2019-05-29T01:04:23.420Z,99.99
2019-05-29T01:05:23.404Z,99.99
2019-05-29T01:06:23.364Z,99.99
2019-05-29T01:07:23.339Z,99.99
2019-05-29T01:08:23.308Z,99.99
2019-05-29T01:09:23.277Z,99.99
2019-05-29T01:10:23.251Z,99.99
2019-05-29T01:11:23.226Z,99.99
2019-05-29T01:12:23.193Z,99.99
2019-05-29T01:13:23.163Z,99.99
2019-05-29T01:14:23.136Z,99.99
2019-05-29T01:15:23.108Z,99.99
2019-05-29T01:16:23.080Z,99.99
2019-05-29T01:17:23.049Z,99.99
2019-05-29T01:18:23.023Z,99.99
2019-05-29T01:19:22.991Z,99.99
2019-05-29T01:20:22.964Z,99.99
2019-05-29T01:21:22.935Z,99.99
2019-05-29T01:22:22.908Z,99.99
2019-05-29T01:23:22.880Z,99.99
2019-05-29T01:24:22.850Z,99.99
2019-05-29T01:25:22.822Z,99.99
2019-05-29T01:26:22.900Z,99.99
2019-05-29T01:27:23.153Z,99.99
2019-05-29T01:28:23.146Z,99.99
2019-05-29T01:29:23.432Z,99.99
2019-05-29T01:30:23.400Z,99.99
2019-05-29T01:31:23.607Z,99.99
2019-05-29T01:32:23.763Z,99.99
2019-05-29T01:33:24.553Z,99.99
2019-05-29T01:34:22.564Z,99.99
2019-05-29T01:35:22.536Z,99.99
2019-05-29T01:36:22.505Z,99.99
2019-05-29T01:37:22.480Z,99.99
2019-05-29T01:38:23.508Z,99.99
2019-05-29T01:39:23.486Z,99.99
2019-05-29T01:40:27.278Z,99.99
2019-05-29T01:41:23.452Z,99.99
2019-05-29T01:42:23.476Z,99.99
2019-05-29T01:43:23.470Z,99.99
2019-05-29T01:44:23.596Z,99.99
2019-05-29T01:45:22.517Z,99.99
2019-05-29T01:46:22.218Z,99.99
2019-05-29T01:47:22.189Z,99.99
2019-05-29T01:48:22.168Z,99.99
2019-05-29T01:49:22.135Z,99.99
2019-05-29T01:50:22.106Z,99.99
2019-05-29T01:51:22.074Z,99.99
2019-05-29T01:52:22.044Z,99.99
2019-05-29T01:53:22.017Z,99.99
2019-05-29T01:54:21.989Z,99.99
2019-05-29T01:55:21.959Z,99.99
2019-05-29T01:56:22.003Z,99.99
2019-05-29T01:57:21.902Z,99.99
2019-05-29T01:58:22.033Z,99.99
2019-05-29T01:59:21.954Z,99.99
2019-05-29T02:00:22.046Z,99.99
2019-05-29T02:01:21.990Z,99.99
2019-05-29T02:02:21.991Z,99.99
2019-05-29T02:03:21.989Z,99.99
2019-05-29T02:04:21.994Z,99.99
2019-05-29T02:05:22.013Z,99.99
2019-05-29T02:06:21.929Z,99.99
2019-05-29T02:07:22.411Z,99.99
2019-05-29T02:08:22.140Z,99.99
2019-05-29T02:09:22.107Z,99.99
2019-05-29T02:10:22.201Z,99.99
2019-05-29T02:11:21.496Z,99.99
2019-05-29T02:12:22.317Z,99.99
2019-05-29T02:13:21.464Z,99.99
2019-05-29T02:14:22.632Z,99.99
2019-05-29T02:15:31.203Z,99.99
2019-05-29T02:16:22.491Z,99.99
2019-05-29T02:17:21.810Z,99.99
2019-05-29T02:18:21.296Z,99.99
2019-05-29T02:19:21.866Z,99.99
2019-05-29T02:20:21.273Z,99.99
2019-05-29T02:21:22.318Z,99.99
2019-05-29T02:22:21.178Z,99.99
2019-05-29T02:23:22.089Z,99.99
2019-05-29T02:24:21.243Z,99.99
2019-05-29T02:25:22.203Z,99.99
2019-05-29T02:26:22.326Z,99.99
2019-05-29T02:27:21.418Z,99.99
2019-05-29T02:28:21.004Z,99.99
2019-05-29T02:29:20.974Z,99.99
2019-05-29T02:30:23.105Z,99.99
2019-05-29T02:31:21.884Z,99.99
2019-05-29T02:32:21.391Z,99.99
2019-05-29T02:33:21.935Z,99.99
2019-05-29T02:34:22.633Z,99.99
2019-05-29T02:35:22.415Z,99.99
2019-05-29T02:36:22.215Z,99.99
2019-05-29T02:37:22.165Z,99.99
2019-05-29T02:38:22.675Z,99.99
2019-05-29T02:39:21.544Z,99.99
2019-05-29T02:40:21.805Z,99.99
2019-05-29T02:41:21.687Z,99.99
2019-05-29T02:42:20.985Z,99.99
2019-05-29T02:43:21.315Z,99.99
2019-05-29T02:44:21.143Z,99.99
2019-05-29T02:45:21.638Z,99.99
2019-05-29T02:46:21.779Z,99.99
2019-05-29T02:47:21.669Z,99.99
2019-05-29T02:48:20.960Z,99.99
2019-05-29T02:49:21.580Z,99.99
2019-05-29T02:50:22.023Z,99.99
2019-05-29T02:51:21.947Z,99.99
2019-05-29T02:52:21.857Z,99.99
2019-05-29T02:53:20.277Z,99.99
2019-05-29T02:54:20.471Z,99.99
2019-05-29T02:55:20.746Z,99.99
2019-05-29T02:56:20.718Z,99.99
2019-05-29T02:57:20.753Z,99.99
2019-05-29T02:58:21.539Z,99.99
2019-05-29T02:59:21.147Z,99.99
2019-05-29T03:00:20.994Z,99.99
2019-05-29T03:01:21.546Z,99.99
2019-05-29T03:02:21.501Z,99.99
2019-05-29T03:03:21.470Z,99.99
2019-05-29T03:04:21.462Z,99.99
2019-05-29T03:05:19.924Z,99.99
2019-05-29T03:06:19.897Z,99.99
2019-05-29T03:07:19.866Z,99.99
2019-05-29T03:08:19.838Z,99.99
2019-05-29T03:09:19.808Z,99.99
2019-05-29T03:10:19.779Z,99.99
2019-05-29T03:11:19.757Z,99.99
2019-05-29T03:12:19.721Z,99.99
2019-05-29T03:13:19.691Z,99.99
2019-05-29T03:14:19.662Z,99.99
2019-05-29T03:15:19.634Z,99.99
2019-05-29T03:16:19.633Z,99.99
2019-05-29T03:17:19.585Z,99.99
2019-05-29T03:18:19.543Z,99.99
2019-05-29T03:19:19.513Z,99.99
2019-05-29T03:20:19.485Z,99.99
2019-05-29T03:21:19.456Z,99.99
2019-05-29T03:22:19.425Z,99.99
2019-05-29T03:23:19.395Z,99.99
2019-05-29T03:24:19.366Z,99.99
2019-05-29T03:25:19.335Z,99.99
2019-05-29T03:26:19.308Z,99.99
2019-05-29T03:27:19.277Z,99.99
2019-05-29T03:28:19.245Z,99.99
2019-05-29T03:29:19.218Z,99.99
2019-05-29T03:30:19.189Z,99.99
2019-05-29T03:31:19.159Z,99.99
2019-05-29T03:32:19.147Z,99.99
2019-05-29T03:33:19.104Z,99.99
2019-05-29T03:34:19.074Z,99.99
2019-05-29T03:35:19.041Z,99.99
2019-05-29T03:36:19.037Z,99.99
2019-05-29T03:37:18.983Z,99.99
2019-05-29T03:38:18.960Z,99.99
2019-05-29T03:39:18.937Z,99.99
2019-05-29T03:40:18.894Z,99.99
2019-05-29T03:41:18.864Z,99.99
2019-05-29T03:42:18.842Z,99.99
2019-05-29T03:43:18.804Z,99.99
2019-05-29T03:44:18.774Z,99.99
2019-05-29T03:45:18.745Z,99.99
2019-05-29T03:46:30.107Z,99.99
2019-05-29T03:47:18.693Z,99.99
2019-05-29T03:48:18.662Z,99.99
2019-05-29T03:49:18.631Z,99.99
2019-05-29T03:50:18.599Z,99.99
2019-05-29T03:51:18.565Z,99.99
2019-05-29T03:52:18.536Z,99.99
2019-05-29T03:53:18.505Z,99.99
2019-05-29T03:54:18.479Z,99.99
2019-05-29T03:55:18.447Z,99.99
2019-05-29T03:56:18.424Z,99.99
2019-05-29T03:57:18.399Z,99.99
2019-05-29T03:58:18.360Z,99.99
2019-05-29T03:59:18.329Z,99.99
2019-05-29T04:00:18.299Z,99.99
2019-05-29T04:01:18.267Z,99.99
2019-05-29T04:02:18.240Z,99.99
2019-05-29T04:03:18.210Z,99.99
2019-05-29T04:04:18.185Z,99.99
2019-05-29T04:05:18.151Z,99.99
2019-05-29T04:06:18.123Z,99.99
2019-05-29T04:07:18.093Z,99.99
2019-05-29T04:08:18.065Z,99.99
2019-05-29T04:09:18.036Z,99.99
2019-05-29T04:10:18.002Z,99.99
2019-05-29T04:11:17.973Z,99.99
2019-05-29T04:12:19.095Z,99.99
2019-05-29T04:13:17.915Z,99.99
2019-05-29T04:14:17.886Z,99.99
2019-05-29T04:15:17.861Z,99.99
2019-05-29T04:16:17.828Z,99.99
2019-05-29T04:17:17.796Z,99.99
2019-05-29T04:18:19.690Z,99.99
2019-05-29T04:19:17.742Z,99.99
2019-05-29T04:20:17.708Z,99.99
2019-05-29T04:21:17.680Z,99.99
2019-05-29T04:22:17.649Z,99.99
2019-05-29T04:23:17.621Z,99.99
2019-05-29T04:24:17.594Z,99.99
2019-05-29T04:25:17.564Z,99.99
2019-05-29T04:26:17.546Z,99.99
2019-05-29T04:27:17.504Z,99.99
2019-05-29T04:28:17.476Z,99.99
2019-05-29T04:29:17.446Z,99.99
2019-05-29T04:30:17.419Z,99.99
2019-05-29T04:31:17.389Z,99.99
2019-05-29T04:32:17.370Z,99.99
2019-05-29T04:33:17.330Z,99.99
2019-05-29T04:34:17.303Z,99.99
2019-05-29T04:35:17.272Z,99.99
2019-05-29T04:36:17.245Z,99.99
2019-05-29T04:37:17.215Z,99.99
2019-05-29T04:38:17.185Z,99.99
2019-05-29T04:39:17.157Z,99.99
2019-05-29T04:40:17.129Z,99.99
2019-05-29T04:41:17.102Z,99.99
2019-05-29T04:42:17.079Z,99.99
2019-05-29T04:43:17.047Z,99.99
2019-05-29T04:44:17.013Z,99.99
2019-05-29T04:45:16.989Z,99.99
2019-05-29T04:46:16.959Z,99.99
2019-05-29T04:47:16.932Z,99.99
2019-05-29T04:48:16.900Z,99.99
2019-05-29T04:49:20.186Z,99.99
2019-05-29T04:50:16.844Z,99.99
2019-05-29T04:51:16.815Z,99.99
2019-05-29T04:52:16.788Z,99.99
2019-05-29T04:53:16.759Z,99.99
2019-05-29T04:54:16.730Z,99.99
2019-05-29T04:55:16.704Z,99.99
2019-05-29T04:56:16.674Z,99.99
2019-05-29T04:57:16.647Z,99.99
2019-05-29T04:58:16.621Z,99.99
2019-05-29T04:59:16.589Z,99.99
2019-05-29T05:00:16.565Z,99.99
2019-05-29T05:01:16.532Z,99.99
2019-05-29T05:02:16.505Z,99.99
2019-05-29T05:03:16.476Z,99.99
2019-05-29T05:04:16.444Z,99.99
2019-05-29T05:05:19.392Z,99.99
2019-05-29T05:06:16.387Z,99.99
2019-05-29T05:07:16.361Z,99.99
2019-05-29T05:08:16.331Z,99.99
2019-05-29T05:09:16.302Z,99.99
2019-05-29T05:10:16.275Z,99.99
2019-05-29T05:11:16.245Z,99.99
2019-05-29T05:12:16.218Z,99.99
2019-05-29T05:13:16.191Z,99.99
2019-05-29T05:14:16.163Z,99.99
2019-05-29T05:15:16.134Z,99.99
2019-05-29T05:16:16.105Z,99.99
2019-05-29T05:17:25.717Z,99.99
2019-05-29T05:18:16.049Z,99.99
2019-05-29T05:19:17.024Z,99.99
2019-05-29T05:20:15.992Z,99.99
2019-05-29T05:21:15.966Z,99.99
2019-05-29T05:22:15.938Z,99.99
2019-05-29T05:23:15.933Z,96.56
2019-05-29T05:24:15.882Z,90.92
2019-05-29T05:25:15.857Z,85.94
2019-05-29T05:26:15.826Z,81.21
2019-05-29T05:27:15.800Z,78.66
2019-05-29T05:28:15.776Z,76.40
2019-05-29T05:29:15.747Z,74.72
2019-05-29T05:30:15.723Z,71.17
2019-05-29T05:31:15.695Z,70.89
2019-05-29T05:32:15.669Z,69.87
2019-05-29T05:33:15.646Z,68.72
2019-05-29T05:34:15.622Z,67.57
2019-05-29T05:35:15.599Z,68.75
2019-05-29T05:36:15.571Z,67.16
2019-05-29T05:37:15.562Z,65.65
2019-05-29T05:38:15.531Z,64.85
2019-05-29T05:39:15.509Z,64.89
2019-05-29T05:40:15.497Z,63.06
2019-05-29T05:41:15.462Z,63.32
2019-05-29T05:42:15.437Z,64.12
2019-05-29T05:43:23.789Z,63.16
2019-05-29T05:44:15.397Z,63.35
2019-05-29T05:45:15.378Z,63.32
2019-05-29T05:46:15.351Z,64.50
2019-05-29T05:47:15.329Z,62.81
2019-05-29T05:48:15.308Z,60.53
2019-05-29T05:49:15.287Z,59.57
2019-05-29T05:50:15.269Z,59.22
2019-05-29T05:51:15.247Z,58.67
2019-05-29T05:52:15.223Z,57.80
2019-05-29T05:53:15.205Z,57.20
2019-05-29T05:54:15.186Z,58.28
2019-05-29T05:55:15.165Z,57.80
2019-05-29T05:56:15.146Z,56.38
2019-05-29T05:57:15.126Z,56.16
2019-05-29T05:58:15.107Z,55.78
2019-05-29T05:59:15.086Z,55.88
2019-05-29T06:00:15.069Z,55.49
2019-05-29T06:01:15.049Z,55.46
2019-05-29T06:02:15.031Z,56.56
2019-05-29T06:03:15.010Z,58.58
2019-05-29T06:04:14.990Z,58.48
2019-05-29T06:05:14.971Z,57.81
2019-05-29T06:06:14.958Z,57.93
2019-05-29T06:07:14.932Z,57.97
2019-05-29T06:08:14.914Z,56.33
2019-05-29T06:09:14.895Z,55.37
2019-05-29T06:10:14.877Z,56.26
2019-05-29T06:11:14.861Z,54.63
2019-05-29T06:12:14.837Z,54.34
2019-05-29T06:13:14.823Z,53.96
2019-05-29T06:14:14.805Z,53.92
2019-05-29T06:15:14.785Z,54.99
2019-05-29T06:16:14.762Z,54.99
2019-05-29T06:17:14.747Z,54.63
2019-05-29T06:18:21.283Z,54.12
2019-05-29T06:19:14.708Z,54.02
2019-05-29T06:20:14.690Z,54.47
2019-05-29T06:21:14.676Z,55.82
2019-05-29T06:22:14.655Z,55.56
2019-05-29T06:23:14.632Z,54.69
2019-05-29T06:24:14.619Z,55.15
2019-05-29T06:25:14.596Z,55.76
2019-05-29T06:26:14.676Z,53.47
2019-05-29T06:27:14.557Z,52.44
2019-05-29T06:28:14.538Z,51.45
2019-05-29T06:29:14.526Z,51.74
2019-05-29T06:30:14.503Z,51.45
2019-05-29T06:31:14.488Z,51.38
2019-05-29T06:32:14.468Z,51.79
2019-05-29T06:33:14.457Z,49.77
2019-05-29T06:34:14.429Z,48.93
2019-05-29T06:35:14.418Z,48.23
2019-05-29T06:36:14.396Z,48.30
2019-05-29T06:37:14.379Z,50.13
2019-05-29T06:38:14.358Z,49.51
2019-05-29T06:39:14.343Z,49.15
2019-05-29T06:40:14.322Z,48.18
2019-05-29T06:41:14.317Z,48.11
2019-05-29T06:42:14.289Z,46.64
2019-05-29T06:43:14.267Z,46.18
2019-05-29T06:44:14.258Z,45.58
2019-05-29T06:45:14.299Z,47.24
2019-05-29T06:46:14.251Z,45.87
2019-05-29T06:47:14.211Z,46.55
2019-05-29T06:48:14.184Z,45.63
2019-05-29T06:49:14.175Z,46.31
2019-05-29T06:50:14.152Z,47.56
2019-05-29T06:51:14.133Z,47.17
2019-05-29T06:52:14.112Z,48.59
2019-05-29T06:53:14.092Z,48.23
2019-05-29T06:54:14.077Z,47.92
2019-05-29T06:55:14.057Z,48.79
2019-05-29T06:56:14.376Z,48.21
2019-05-29T06:57:14.021Z,48.13
2019-05-29T06:58:14.008Z,48.71
2019-05-29T06:59:13.988Z,51.83
2019-05-29T07:00:14.002Z,55.62
2019-05-29T07:01:14.003Z,54.88
2019-05-29T07:02:13.934Z,53.05
2019-05-29T07:03:13.914Z,54.27
2019-05-29T07:04:13.895Z,53.46
2019-05-29T07:05:13.878Z,52.86
2019-05-29T07:06:13.863Z,53.72
2019-05-29T07:07:13.838Z,52.31
2019-05-29T07:08:20.747Z,53.09
2019-05-29T07:09:13.800Z,55.73
2019-05-29T07:10:13.779Z,56.67
2019-05-29T07:11:13.758Z,53.75
2019-05-29T07:12:13.743Z,53.89
2019-05-29T07:13:13.722Z,56.01
2019-05-29T07:14:13.699Z,55.62
2019-05-29T07:15:13.680Z,54.21
2019-05-29T07:16:13.659Z,52.95
2019-05-29T07:17:13.640Z,54.30
2019-05-29T07:18:13.617Z,51.67
2019-05-29T07:19:45.394Z,51.40
2019-05-29T07:20:13.577Z,49.43
2019-05-29T07:21:13.556Z,47.92
2019-05-29T07:22:13.536Z,47.27
2019-05-29T07:23:13.518Z,45.77
2019-05-29T07:24:13.498Z,44.93
2019-05-29T07:25:13.479Z,45.04
2019-05-29T07:26:13.460Z,44.25
2019-05-29T07:27:13.713Z,42.73
2019-05-29T07:28:13.436Z,42.46
2019-05-29T07:29:13.404Z,42.18
2019-05-29T07:30:13.388Z,40.92
2019-05-29T07:31:13.375Z,40.42
2019-05-29T07:32:13.349Z,41.55
2019-05-29T07:33:13.335Z,42.25
2019-05-29T07:34:13.315Z,43.24
2019-05-29T07:35:13.302Z,41.20
2019-05-29T07:36:13.279Z,40.90
2019-05-29T07:37:13.268Z,40.99
2019-05-29T07:38:13.245Z,42.08
2019-05-29T07:39:13.232Z,41.19
2019-05-29T07:40:13.210Z,41.44
2019-05-29T07:41:13.195Z,42.93
2019-05-29T07:42:13.176Z,43.73
2019-05-29T07:43:13.159Z,43.46
2019-05-29T07:44:13.144Z,42.90
2019-05-29T07:45:13.157Z,42.61
2019-05-29T07:46:13.112Z,42.52
2019-05-29T07:47:13.091Z,42.90
2019-05-29T07:48:13.081Z,43.29
2019-05-29T07:49:13.057Z,42.25
2019-05-29T07:50:13.046Z,41.69
2019-05-29T07:51:13.030Z,40.82
2019-05-29T07:52:13.006Z,40.15
2019-05-29T07:53:12.992Z,42.85
2019-05-29T07:54:12.974Z,41.38
2019-05-29T07:55:12.956Z,41.28
2019-05-29T07:56:22.271Z,41.48
2019-05-29T07:57:12.922Z,41.98
2019-05-29T07:58:12.908Z,42.47
2019-05-29T07:59:12.891Z,44.76
2019-05-29T08:00:12.874Z,45.21
2019-05-29T08:01:13.973Z,43.00
2019-05-29T08:02:12.840Z,40.70
2019-05-29T08:03:12.822Z,41.19
2019-05-29T08:04:12.805Z,42.54
2019-05-29T08:05:12.789Z,42.44
2019-05-29T08:06:12.774Z,42.29
2019-05-29T08:07:12.757Z,40.86
2019-05-29T08:08:12.742Z,41.03
2019-05-29T08:09:12.725Z,41.19
2019-05-29T08:10:12.712Z,40.03
2019-05-29T08:11:12.690Z,41.09
2019-05-29T08:12:12.675Z,40.24
2019-05-29T08:13:12.660Z,40.24
2019-05-29T08:14:12.642Z,41.44
2019-05-29T08:15:12.625Z,42.09
2019-05-29T08:16:12.608Z,42.38
2019-05-29T08:17:12.594Z,43.41
2019-05-29T08:18:12.583Z,42.59
2019-05-29T08:19:12.558Z,42.30
2019-05-29T08:20:12.544Z,41.55
2019-05-29T08:21:12.527Z,41.05
2019-05-29T08:22:12.510Z,43.59
2019-05-29T08:23:12.492Z,44.67
2019-05-29T08:24:12.477Z,45.10
2019-05-29T08:25:12.459Z,42.93
2019-05-29T08:26:12.443Z,41.02
2019-05-29T08:27:12.424Z,41.03
2019-05-29T08:28:12.410Z,41.02
2019-05-29T08:29:12.391Z,40.11
2019-05-29T08:30:12.375Z,41.46
2019-05-29T08:31:12.360Z,42.88
2019-05-29T08:32:12.342Z,42.09
2019-05-29T08:33:12.332Z,42.55
2019-05-29T08:34:12.309Z,42.33
2019-05-29T08:35:12.383Z,45.15
2019-05-29T08:36:12.276Z,46.96
2019-05-29T08:37:12.260Z,47.68
2019-05-29T08:38:12.240Z,45.97
2019-05-29T08:39:12.223Z,45.78
2019-05-29T08:40:12.208Z,45.63
2019-05-29T08:41:12.190Z,43.80
2019-05-29T08:42:22.351Z,42.46
2019-05-29T08:43:12.152Z,45.15
2019-05-29T08:44:12.134Z,43.05
2019-05-29T08:45:12.117Z,43.29
2019-05-29T08:46:12.098Z,42.36
2019-05-29T08:47:12.082Z,41.03
2019-05-29T08:48:12.064Z,40.30
2019-05-29T08:49:12.048Z,38.39
2019-05-29T08:50:18.533Z,37.21
2019-05-29T08:51:12.011Z,38.14
2019-05-29T08:52:12.651Z,38.04
2019-05-29T08:53:11.979Z,38.95
2019-05-29T08:54:23.521Z,40.11
2019-05-29T08:55:13.896Z,41.22
2019-05-29T08:56:11.935Z,43.85
2019-05-29T08:57:11.911Z,45.37
2019-05-29T08:58:11.896Z,45.68
2019-05-29T08:59:11.876Z,45.70
2019-05-29T09:00:11.929Z,45.25
2019-05-29T09:01:11.843Z,43.92
2019-05-29T09:02:11.835Z,43.19
2019-05-29T09:03:11.808Z,41.19
2019-05-29T09:04:11.794Z,41.60
2019-05-29T09:05:11.776Z,41.71
2019-05-29T09:06:13.714Z,39.87
2019-05-29T09:07:11.741Z,40.34
2019-05-29T09:08:11.723Z,39.37
2019-05-29T09:09:11.712Z,39.47
2019-05-29T09:10:11.701Z,39.84
2019-05-29T09:11:11.671Z,39.37
2019-05-29T09:12:11.677Z,39.69
2019-05-29T09:13:11.641Z,38.45
2019-05-29T09:14:11.626Z,39.11
2019-05-29T09:15:11.613Z,38.68
2019-05-29T09:16:11.591Z,40.47
2019-05-29T09:17:11.994Z,42.52
2019-05-29T09:18:11.561Z,42.02
2019-05-29T09:19:12.091Z,41.55
2019-05-29T09:20:27.289Z,41.36
2019-05-29T09:21:13.775Z,41.51
2019-05-29T09:22:12.135Z,43.03
2019-05-29T09:23:12.718Z,42.65
2019-05-29T09:24:14.101Z,42.38
2019-05-29T09:25:13.635Z,42.16
2019-05-29T09:26:15.870Z,41.55
2019-05-29T09:27:11.408Z,41.03
2019-05-29T09:28:11.391Z,43.75
2019-05-29T09:29:11.374Z,41.40
2019-05-29T09:30:11.359Z,41.77
2019-05-29T09:31:11.340Z,40.61
2019-05-29T09:32:11.324Z,40.34
2019-05-29T09:33:11.310Z,41.07
2019-05-29T09:34:11.293Z,42.67
2019-05-29T09:35:11.276Z,43.51
2019-05-29T09:36:11.257Z,44.02
2019-05-29T09:37:11.257Z,43.87
2019-05-29T09:38:11.227Z,42.48
2019-05-29T09:39:11.204Z,42.27
2019-05-29T09:40:11.189Z,42.21
2019-05-29T09:41:11.172Z,42.84
2019-05-29T09:42:11.159Z,44.62
2019-05-29T09:43:11.139Z,46.04
2019-05-29T09:44:28.274Z,47.17
2019-05-29T09:45:11.113Z,48.79
2019-05-29T09:46:11.964Z,49.17
2019-05-29T09:47:11.067Z,49.82
2019-05-29T09:48:11.111Z,50.78
2019-05-29T09:49:11.032Z,51.45
2019-05-29T09:50:11.015Z,51.64
2019-05-29T09:51:21.226Z,50.96
2019-05-29T09:52:10.976Z,52.14
2019-05-29T09:53:10.959Z,51.31
2019-05-29T09:54:10.951Z,49.89
2019-05-29T09:55:10.919Z,47.97
2019-05-29T09:56:10.903Z,48.16
2019-05-29T09:57:10.884Z,48.93
2019-05-29T09:58:10.867Z,48.52
2019-05-29T09:59:10.846Z,49.29
2019-05-29T10:00:10.827Z,49.41
2019-05-29T10:01:22.669Z,48.23
2019-05-29T10:02:10.792Z,48.04
2019-05-29T10:03:10.770Z,49.00
2019-05-29T10:04:10.754Z,50.63
2019-05-29T10:05:10.733Z,50.15
2019-05-29T10:06:10.739Z,51.23
2019-05-29T10:07:10.695Z,50.56
2019-05-29T10:08:10.688Z,49.22
2019-05-29T10:09:10.659Z,48.71
2019-05-29T10:10:10.639Z,48.13
2019-05-29T10:11:11.212Z,49.00
2019-05-29T10:12:10.600Z,48.04
2019-05-29T10:13:10.583Z,49.29
2019-05-29T10:14:10.566Z,50.13
2019-05-29T10:15:10.542Z,50.54
2019-05-29T10:16:10.526Z,50.15
2019-05-29T10:17:12.441Z,48.83
2019-05-29T10:18:30.488Z,48.08
2019-05-29T10:19:10.465Z,47.94
2019-05-29T10:20:10.450Z,45.36
2019-05-29T10:21:10.428Z,44.98
2019-05-29T10:22:10.408Z,45.75
2019-05-29T10:23:10.401Z,44.54
2019-05-29T10:24:10.373Z,42.56
2019-05-29T10:25:10.351Z,40.57
2019-05-29T10:26:10.332Z,40.99
2019-05-29T10:27:10.343Z,42.49
2019-05-29T10:28:10.298Z,44.34
2019-05-29T10:29:10.463Z,47.27
2019-05-29T10:30:10.260Z,49.07
2019-05-29T10:31:10.244Z,51.09
2019-05-29T10:32:10.228Z,52.05
2019-05-29T10:33:10.205Z,51.93
2019-05-29T10:34:10.187Z,51.64
2019-05-29T10:35:10.169Z,51.81
2019-05-29T10:36:10.155Z,52.28
2019-05-29T10:37:10.131Z,53.05
2019-05-29T10:38:10.112Z,52.67
2019-05-29T10:39:12.732Z,53.66
2019-05-29T10:40:10.074Z,52.17
2019-05-29T10:41:10.054Z,49.91
2019-05-29T10:42:10.035Z,46.67
2019-05-29T10:43:10.014Z,44.31
2019-05-29T10:44:12.641Z,43.55
2019-05-29T10:45:09.978Z,42.23
2019-05-29T10:46:09.962Z,42.52
2019-05-29T10:47:09.938Z,42.96
2019-05-29T10:48:10.053Z,44.31
2019-05-29T10:49:09.906Z,44.76
2019-05-29T10:50:10.038Z,44.76
2019-05-29T10:51:09.863Z,45.73
2019-05-29T10:52:15.753Z,44.93
2019-05-29T10:53:09.829Z,45.78
2019-05-29T10:54:09.811Z,45.39
2019-05-29T10:55:09.791Z,46.53
2019-05-29T10:56:09.774Z,46.59
2019-05-29T10:57:09.757Z,47.49
2019-05-29T10:58:09.736Z,47.20
2019-05-29T10:59:09.715Z,47.87
2019-05-29T11:00:09.700Z,46.19
2019-05-29T11:01:09.678Z,44.96
2019-05-29T11:02:09.661Z,44.07
2019-05-29T11:03:09.677Z,44.65
2019-05-29T11:04:09.634Z,45.42
2019-05-29T11:05:09.609Z,45.99
2019-05-29T11:06:09.586Z,45.51
2019-05-29T11:07:09.572Z,45.44
2019-05-29T11:08:09.547Z,44.74
2019-05-29T11:09:09.529Z,44.24
2019-05-29T11:10:13.312Z,44.55
2019-05-29T11:11:09.491Z,44.91
2019-05-29T11:12:09.473Z,45.80
2019-05-29T11:13:09.453Z,43.99
2019-05-29T11:14:09.435Z,43.97
2019-05-29T11:15:20.692Z,44.35
2019-05-29T11:16:09.398Z,44.65
2019-05-29T11:17:09.384Z,44.34
2019-05-29T11:18:09.358Z,45.68
2019-05-29T11:19:09.351Z,46.14
2019-05-29T11:20:09.332Z,47.10
2019-05-29T11:21:09.302Z,47.36
2019-05-29T11:22:25.319Z,47.17
2019-05-29T11:23:09.264Z,48.04
2019-05-29T11:24:09.251Z,48.69
2019-05-29T11:25:21.592Z,48.97
2019-05-29T11:26:09.206Z,48.30
2019-05-29T11:27:09.196Z,48.79
2019-05-29T11:28:09.169Z,48.69
2019-05-29T11:29:09.149Z,50.13
2019-05-29T11:30:09.140Z,48.49
2019-05-29T11:31:09.113Z,48.81
2019-05-29T11:32:09.093Z,47.30
2019-05-29T11:33:09.073Z,46.36
2019-05-29T11:34:09.059Z,46.38
2019-05-29T11:35:09.033Z,47.49
2019-05-29T11:36:13.026Z,47.97
2019-05-29T11:37:08.994Z,47.94
2019-05-29T11:38:08.977Z,49.57
2019-05-29T11:39:08.955Z,49.19
2019-05-29T11:40:08.936Z,47.94
2019-05-29T11:41:25.091Z,46.89
2019-05-29T11:42:08.902Z,47.49
2019-05-29T11:43:08.877Z,46.64
2019-05-29T11:44:08.858Z,47.22
2019-05-29T11:45:08.841Z,47.61
2019-05-29T11:46:08.822Z,46.62
2019-05-29T11:47:08.800Z,46.23
2019-05-29T11:48:08.780Z,47.10
2019-05-29T11:49:08.761Z,45.78
2019-05-29T11:50:18.848Z,45.42
2019-05-29T11:51:08.722Z,45.01
2019-05-29T11:52:23.785Z,46.43
2019-05-29T11:53:08.687Z,46.12
2019-05-29T11:54:08.667Z,46.59
2019-05-29T11:55:08.767Z,47.53
2019-05-29T11:56:08.624Z,48.81
2019-05-29T11:57:08.604Z,48.59
2019-05-29T11:58:08.631Z,47.44
2019-05-29T11:59:08.563Z,47.41
2019-05-29T12:00:19.071Z,46.98
2019-05-29T12:01:08.523Z,45.78
2019-05-29T12:02:08.517Z,44.98
2019-05-29T12:03:08.563Z,44.59
2019-05-29T12:04:24.247Z,42.79
2019-05-29T12:05:08.446Z,42.49
2019-05-29T12:06:08.538Z,42.88
2019-05-29T12:07:08.407Z,43.55
2019-05-29T12:08:08.392Z,42.42
2019-05-29T12:09:08.373Z,42.15
2019-05-29T12:10:08.590Z,41.20
2019-05-29T12:11:08.333Z,39.97
2019-05-29T12:12:08.311Z,38.95
2019-05-29T12:13:08.292Z,38.18
2019-05-29T12:14:08.274Z,37.88
2019-05-29T12:15:14.344Z,37.81
2019-05-29T12:16:08.237Z,37.70
2019-05-29T12:17:08.223Z,39.39
2019-05-29T12:18:23.187Z,40.78
2019-05-29T12:19:08.185Z,42.47
2019-05-29T12:20:26.339Z,43.13
2019-05-29T12:21:08.149Z,44.35
2019-05-29T12:22:08.130Z,45.59
2019-05-29T12:23:22.831Z,47.30
2019-05-29T12:24:08.090Z,46.62
2019-05-29T12:25:08.084Z,48.43
2019-05-29T12:26:21.440Z,48.33
2019-05-29T12:27:08.098Z,48.88
2019-05-29T12:28:08.124Z,49.84
2019-05-29T12:29:11.622Z,49.33
2019-05-29T12:30:07.981Z,50.78
2019-05-29T12:31:07.959Z,51.06
2019-05-29T12:32:10.144Z,51.25
2019-05-29T12:33:07.922Z,51.06
2019-05-29T12:34:18.819Z,51.73
2019-05-29T12:35:07.881Z,52.60
2019-05-29T12:36:07.862Z,52.00
2019-05-29T12:37:07.860Z,51.71
2019-05-29T12:38:07.825Z,52.19
2019-05-29T12:39:07.803Z,52.48
2019-05-29T12:40:07.784Z,51.81
2019-05-29T12:41:07.765Z,52.45
2019-05-29T12:42:07.744Z,52.93
2019-05-29T12:43:25.575Z,53.12
2019-05-29T12:44:07.703Z,53.44
2019-05-29T12:45:07.689Z,53.41
2019-05-29T12:46:07.663Z,53.91
2019-05-29T12:47:07.748Z,53.79
2019-05-29T12:48:12.929Z,53.53
2019-05-29T12:49:07.600Z,53.53
2019-05-29T12:50:07.582Z,52.28
2019-05-29T12:51:07.560Z,52.00
2019-05-29T12:52:09.262Z,51.61